sensor_id;sensor_type;location;lat;lon;timestamp;P1;durP1;ratioP1;P2;durP2;ratioP2
43670;SDS011;29267;50.906;7.248;2024-02-14T00:01:48;7.05;;;2.13;;
43670;SDS011;29267;50.906;7.248;2024-02-14T00:04:14;5.50;;;2.30;;
43670;SDS011;29267;50.906;7.248;2024-02-14T00:06:39;3.85;;;1.65;;
43670;SDS011;29267;50.906;7.248;2024-02-14T00:09:05;4.97;;;1.73;;
43670;SDS011;29267;50.906;7.248;2024-02-14T00:11:31;5.65;;;1.77;;
43670;SDS011;29267;50.906;7.248;2024-02-14T00:13:57;4.00;;;1.73;;
43670;SDS011;29267;50.906;7.248;2024-02-14T00:16:25;3.60;;;1.52;;
43670;SDS011;29267;50.906;7.248;2024-02-14T00:18:50;4.18;;;1.80;;
43670;SDS011;29267;50.906;7.248;2024-02-14T00:21:16;4.13;;;1.30;;
43670;SDS011;29267;50.906;7.248;2024-02-14T00:23:41;4.78;;;2.92;;
43670;SDS011;29267;50.906;7.248;2024-02-14T00:26:08;5.53;;;1.92;;
43670;SDS011;29267;50.906;7.248;2024-02-14T00:28:34;5.35;;;1.60;;
43670;SDS011;29267;50.906;7.248;2024-02-14T00:30:59;4.40;;;1.45;;
43670;SDS011;29267;50.906;7.248;2024-02-14T00:33:25;8.05;;;1.38;;
43670;SDS011;29267;50.906;7.248;2024-02-14T00:35:51;3.60;;;1.55;;
43670;SDS011;29267;50.906;7.248;2024-02-14T00:38:16;3.10;;;1.40;;
43670;SDS011;29267;50.906;7.248;2024-02-14T00:40:42;2.58;;;1.13;;
43670;SDS011;29267;50.906;7.248;2024-02-14T00:43:08;5.63;;;1.42;;
43670;SDS011;29267;50.906;7.248;2024-02-14T00:45:33;3.85;;;1.30;;
43670;SDS011;29267;50.906;7.248;2024-02-14T00:48:01;3.00;;;1.45;;
43670;SDS011;29267;50.906;7.248;2024-02-14T00:50:28;3.38;;;1.30;;
43670;SDS011;29267;50.906;7.248;2024-02-14T00:52:54;5.07;;;1.15;;
43670;SDS011;29267;50.906;7.248;2024-02-14T00:55:19;2.47;;;1.00;;
43670;SDS011;29267;50.906;7.248;2024-02-14T00:57:45;2.15;;;1.05;;
43670;SDS011;29267;50.906;7.248;2024-02-14T01:00:10;5.10;;;1.45;;
43670;SDS011;29267;50.906;7.248;2024-02-14T01:02:36;4.05;;;1.25;;
43670;SDS011;29267;50.906;7.248;2024-02-14T01:05:02;6.55;;;1.23;;
43670;SDS011;29267;50.906;7.248;2024-02-14T01:07:29;3.65;;;0.95;;
43670;SDS011;29267;50.906;7.248;2024-02-14T01:09:54;2.05;;;1.10;;
43670;SDS011;29267;50.906;7.248;2024-02-14T01:12:20;3.42;;;1.15;;
43670;SDS011;29267;50.906;7.248;2024-02-14T01:14:46;3.72;;;1.42;;
43670;SDS011;29267;50.906;7.248;2024-02-14T01:17:11;3.40;;;1.30;;
43670;SDS011;29267;50.906;7.248;2024-02-14T01:19:37;3.15;;;1.77;;
43670;SDS011;29267;50.906;7.248;2024-02-14T01:22:02;14.32;;;1.35;;
43670;SDS011;29267;50.906;7.248;2024-02-14T01:24:28;2.33;;;1.15;;
43670;SDS011;29267;50.906;7.248;2024-02-14T01:26:55;1.65;;;0.88;;
43670;SDS011;29267;50.906;7.248;2024-02-14T01:29:21;6.65;;;1.15;;
43670;SDS011;29267;50.906;7.248;2024-02-14T01:31:48;2.90;;;0.90;;
43670;SDS011;29267;50.906;7.248;2024-02-14T01:34:15;4.80;;;2.20;;
43670;SDS011;29267;50.906;7.248;2024-02-14T01:36:40;1.75;;;0.82;;
43670;SDS011;29267;50.906;7.248;2024-02-14T01:39:06;3.10;;;0.90;;
43670;SDS011;29267;50.906;7.248;2024-02-14T01:41:36;2.83;;;0.98;;
43670;SDS011;29267;50.906;7.248;2024-02-14T01:44:02;2.13;;;0.70;;
43670;SDS011;29267;50.906;7.248;2024-02-14T01:46:28;2.58;;;0.63;;
43670;SDS011;29267;50.906;7.248;2024-02-14T01:48:54;2.38;;;0.73;;
43670;SDS011;29267;50.906;7.248;2024-02-14T01:51:20;7.30;;;1.65;;
43670;SDS011;29267;50.906;7.248;2024-02-14T01:53:51;2.72;;;0.77;;
43670;SDS011;29267;50.906;7.248;2024-02-14T01:56:18;3.10;;;0.90;;
43670;SDS011;29267;50.906;7.248;2024-02-14T01:58:44;1.73;;;0.70;;
43670;SDS011;29267;50.906;7.248;2024-02-14T02:01:11;3.45;;;0.73;;
43670;SDS011;29267;50.906;7.248;2024-02-14T02:03:37;1.38;;;0.77;;
43670;SDS011;29267;50.906;7.248;2024-02-14T02:06:03;4.53;;;0.80;;
43670;SDS011;29267;50.906;7.248;2024-02-14T02:08:30;0.63;;;0.52;;
43670;SDS011;29267;50.906;7.248;2024-02-14T02:10:57;3.13;;;0.95;;
43670;SDS011;29267;50.906;7.248;2024-02-14T02:13:23;3.80;;;0.77;;
43670;SDS011;29267;50.906;7.248;2024-02-14T02:15:50;3.55;;;0.68;;
43670;SDS011;29267;50.906;7.248;2024-02-14T02:18:18;5.65;;;0.73;;
43670;SDS011;29267;50.906;7.248;2024-02-14T02:20:44;1.17;;;0.65;;
43670;SDS011;29267;50.906;7.248;2024-02-14T02:23:13;2.70;;;0.70;;
43670;SDS011;29267;50.906;7.248;2024-02-14T02:25:41;2.55;;;0.50;;
43670;SDS011;29267;50.906;7.248;2024-02-14T02:28:08;1.45;;;0.50;;
43670;SDS011;29267;50.906;7.248;2024-02-14T02:30:34;4.20;;;0.68;;
43670;SDS011;29267;50.906;7.248;2024-02-14T02:33:00;4.53;;;1.23;;
43670;SDS011;29267;50.906;7.248;2024-02-14T02:35:27;3.22;;;0.80;;
43670;SDS011;29267;50.906;7.248;2024-02-14T02:37:53;2.42;;;0.63;;
43670;SDS011;29267;50.906;7.248;2024-02-14T02:40:19;1.90;;;0.90;;
43670;SDS011;29267;50.906;7.248;2024-02-14T02:42:46;2.55;;;0.47;;
43670;SDS011;29267;50.906;7.248;2024-02-14T02:45:12;4.15;;;0.80;;
43670;SDS011;29267;50.906;7.248;2024-02-14T02:47:38;3.05;;;0.60;;
43670;SDS011;29267;50.906;7.248;2024-02-14T02:50:04;1.33;;;1.00;;
43670;SDS011;29267;50.906;7.248;2024-02-14T02:52:31;2.30;;;0.82;;
43670;SDS011;29267;50.906;7.248;2024-02-14T02:54:56;1.13;;;0.45;;
43670;SDS011;29267;50.906;7.248;2024-02-14T02:57:22;1.58;;;0.60;;
43670;SDS011;29267;50.906;7.248;2024-02-14T02:59:48;2.60;;;0.50;;
43670;SDS011;29267;50.906;7.248;2024-02-14T03:02:15;3.60;;;0.60;;
43670;SDS011;29267;50.906;7.248;2024-02-14T03:04:41;1.58;;;1.00;;
43670;SDS011;29267;50.906;7.248;2024-02-14T03:07:07;0.80;;;0.60;;
43670;SDS011;29267;50.906;7.248;2024-02-14T03:09:36;1.08;;;0.45;;
43670;SDS011;29267;50.906;7.248;2024-02-14T03:12:02;5.13;;;0.88;;
43670;SDS011;29267;50.906;7.248;2024-02-14T03:14:31;1.80;;;0.70;;
43670;SDS011;29267;50.906;7.248;2024-02-14T03:16:58;1.15;;;0.80;;
43670;SDS011;29267;50.906;7.248;2024-02-14T03:19:28;3.60;;;0.85;;
43670;SDS011;29267;50.906;7.248;2024-02-14T03:21:55;3.65;;;0.77;;
43670;SDS011;29267;50.906;7.248;2024-02-14T03:24:21;3.20;;;0.73;;
43670;SDS011;29267;50.906;7.248;2024-02-14T03:26:46;3.45;;;0.77;;
43670;SDS011;29267;50.906;7.248;2024-02-14T03:29:12;2.13;;;0.80;;
43670;SDS011;29267;50.906;7.248;2024-02-14T03:31:38;2.05;;;0.80;;
43670;SDS011;29267;50.906;7.248;2024-02-14T03:34:04;1.20;;;0.63;;
43670;SDS011;29267;50.906;7.248;2024-02-14T03:36:30;1.67;;;0.75;;
43670;SDS011;29267;50.906;7.248;2024-02-14T03:38:57;2.10;;;0.80;;
43670;SDS011;29267;50.906;7.248;2024-02-14T03:41:23;1.30;;;0.73;;
43670;SDS011;29267;50.906;7.248;2024-02-14T03:43:49;3.85;;;0.80;;
43670;SDS011;29267;50.906;7.248;2024-02-14T03:46:15;1.48;;;0.50;;
43670;SDS011;29267;50.906;7.248;2024-02-14T03:48:44;2.90;;;0.80;;
43670;SDS011;29267;50.906;7.248;2024-02-14T03:51:12;0.73;;;0.60;;
43670;SDS011;29267;50.906;7.248;2024-02-14T03:53:38;1.33;;;0.75;;
43670;SDS011;29267;50.906;7.248;2024-02-14T03:56:04;2.55;;;1.45;;
43670;SDS011;29267;50.906;7.248;2024-02-14T03:58:32;1.35;;;0.80;;
43670;SDS011;29267;50.906;7.248;2024-02-14T04:01:05;3.47;;;0.70;;
43670;SDS011;29267;50.906;7.248;2024-02-14T04:03:31;0.95;;;0.50;;
43670;SDS011;29267;50.906;7.248;2024-02-14T04:05:56;4.90;;;0.70;;
43670;SDS011;29267;50.906;7.248;2024-02-14T04:08:23;1.63;;;0.63;;
43670;SDS011;29267;50.906;7.248;2024-02-14T04:10:48;5.57;;;1.15;;
43670;SDS011;29267;50.906;7.248;2024-02-14T04:13:19;3.38;;;0.73;;
43670;SDS011;29267;50.906;7.248;2024-02-14T04:15:45;1.67;;;0.50;;
43670;SDS011;29267;50.906;7.248;2024-02-14T04:18:12;5.55;;;0.88;;
43670;SDS011;29267;50.906;7.248;2024-02-14T04:20:38;1.33;;;0.63;;
43670;SDS011;29267;50.906;7.248;2024-02-14T04:23:03;2.05;;;0.50;;
43670;SDS011;29267;50.906;7.248;2024-02-14T04:25:31;2.17;;;0.60;;
43670;SDS011;29267;50.906;7.248;2024-02-14T04:27:57;3.28;;;0.80;;
43670;SDS011;29267;50.906;7.248;2024-02-14T04:30:24;1.10;;;0.40;;
43670;SDS011;29267;50.906;7.248;2024-02-14T04:32:50;1.30;;;0.85;;
43670;SDS011;29267;50.906;7.248;2024-02-14T04:35:16;2.42;;;0.82;;
43670;SDS011;29267;50.906;7.248;2024-02-14T04:37:44;1.70;;;0.70;;
43670;SDS011;29267;50.906;7.248;2024-02-14T04:40:11;1.00;;;0.60;;
43670;SDS011;29267;50.906;7.248;2024-02-14T04:42:37;1.50;;;0.55;;
43670;SDS011;29267;50.906;7.248;2024-02-14T04:45:03;4.93;;;0.73;;
43670;SDS011;29267;50.906;7.248;2024-02-14T04:47:29;1.27;;;0.50;;
43670;SDS011;29267;50.906;7.248;2024-02-14T04:49:55;1.13;;;0.47;;
43670;SDS011;29267;50.906;7.248;2024-02-14T04:52:20;1.35;;;0.50;;
43670;SDS011;29267;50.906;7.248;2024-02-14T04:54:46;0.98;;;0.40;;
43670;SDS011;29267;50.906;7.248;2024-02-14T04:57:12;0.68;;;0.50;;
43670;SDS011;29267;50.906;7.248;2024-02-14T04:59:38;0.82;;;0.50;;
43670;SDS011;29267;50.906;7.248;2024-02-14T05:02:03;0.82;;;0.43;;
43670;SDS011;29267;50.906;7.248;2024-02-14T05:04:29;4.63;;;1.20;;
43670;SDS011;29267;50.906;7.248;2024-02-14T05:06:54;3.72;;;0.75;;
43670;SDS011;29267;50.906;7.248;2024-02-14T05:09:20;0.77;;;0.50;;
43670;SDS011;29267;50.906;7.248;2024-02-14T05:11:46;3.58;;;0.75;;
43670;SDS011;29267;50.906;7.248;2024-02-14T05:14:11;0.52;;;0.40;;
43670;SDS011;29267;50.906;7.248;2024-02-14T05:16:37;1.25;;;0.60;;
43670;SDS011;29267;50.906;7.248;2024-02-14T05:19:02;1.23;;;0.68;;
43670;SDS011;29267;50.906;7.248;2024-02-14T05:21:28;1.88;;;0.75;;
43670;SDS011;29267;50.906;7.248;2024-02-14T05:23:54;2.40;;;0.90;;
43670;SDS011;29267;50.906;7.248;2024-02-14T05:26:20;1.10;;;0.52;;
43670;SDS011;29267;50.906;7.248;2024-02-14T05:28:46;0.85;;;0.60;;
43670;SDS011;29267;50.906;7.248;2024-02-14T05:31:11;1.75;;;0.68;;
43670;SDS011;29267;50.906;7.248;2024-02-14T05:33:37;2.10;;;0.70;;
43670;SDS011;29267;50.906;7.248;2024-02-14T05:36:02;2.78;;;0.70;;
43670;SDS011;29267;50.906;7.248;2024-02-14T05:38:28;1.33;;;0.70;;
43670;SDS011;29267;50.906;7.248;2024-02-14T05:40:54;2.05;;;0.50;;
43670;SDS011;29267;50.906;7.248;2024-02-14T05:43:20;3.55;;;1.02;;
43670;SDS011;29267;50.906;7.248;2024-02-14T05:45:47;2.40;;;0.50;;
43670;SDS011;29267;50.906;7.248;2024-02-14T05:48:12;1.13;;;0.75;;
43670;SDS011;29267;50.906;7.248;2024-02-14T05:50:39;1.88;;;0.52;;
43670;SDS011;29267;50.906;7.248;2024-02-14T05:53:05;0.90;;;0.43;;
43670;SDS011;29267;50.906;7.248;2024-02-14T05:55:31;1.45;;;0.65;;
43670;SDS011;29267;50.906;7.248;2024-02-14T05:57:57;0.82;;;0.60;;
43670;SDS011;29267;50.906;7.248;2024-02-14T06:00:24;1.40;;;0.82;;
43670;SDS011;29267;50.906;7.248;2024-02-14T06:02:51;1.90;;;0.75;;
43670;SDS011;29267;50.906;7.248;2024-02-14T06:05:16;1.60;;;1.02;;
43670;SDS011;29267;50.906;7.248;2024-02-14T06:07:42;1.05;;;0.85;;
43670;SDS011;29267;50.906;7.248;2024-02-14T06:10:10;2.95;;;0.70;;
43670;SDS011;29267;50.906;7.248;2024-02-14T06:12:36;2.38;;;0.77;;
43670;SDS011;29267;50.906;7.248;2024-02-14T06:15:01;2.53;;;0.82;;
43670;SDS011;29267;50.906;7.248;2024-02-14T06:17:27;1.60;;;0.80;;
43670;SDS011;29267;50.906;7.248;2024-02-14T06:19:53;1.63;;;0.73;;
43670;SDS011;29267;50.906;7.248;2024-02-14T06:22:19;2.45;;;0.70;;
43670;SDS011;29267;50.906;7.248;2024-02-14T06:24:45;2.58;;;1.30;;
43670;SDS011;29267;50.906;7.248;2024-02-14T06:27:13;1.27;;;0.88;;
43670;SDS011;29267;50.906;7.248;2024-02-14T06:29:41;2.28;;;0.90;;
43670;SDS011;29267;50.906;7.248;2024-02-14T06:32:07;1.70;;;1.10;;
43670;SDS011;29267;50.906;7.248;2024-02-14T06:34:33;5.10;;;0.80;;
43670;SDS011;29267;50.906;7.248;2024-02-14T06:36:58;1.83;;;1.02;;
43670;SDS011;29267;50.906;7.248;2024-02-14T06:39:24;2.30;;;1.35;;
43670;SDS011;29267;50.906;7.248;2024-02-14T06:41:50;3.85;;;1.95;;
43670;SDS011;29267;50.906;7.248;2024-02-14T06:44:15;6.97;;;0.90;;
43670;SDS011;29267;50.906;7.248;2024-02-14T06:46:41;2.95;;;1.13;;
43670;SDS011;29267;50.906;7.248;2024-02-14T06:49:07;1.20;;;0.80;;
43670;SDS011;29267;50.906;7.248;2024-02-14T06:51:33;2.10;;;1.08;;
43670;SDS011;29267;50.906;7.248;2024-02-14T06:53:59;1.38;;;0.90;;
43670;SDS011;29267;50.906;7.248;2024-02-14T06:56:25;1.98;;;0.95;;
43670;SDS011;29267;50.906;7.248;2024-02-14T06:58:50;1.70;;;0.93;;
43670;SDS011;29267;50.906;7.248;2024-02-14T07:01:18;3.67;;;1.10;;
43670;SDS011;29267;50.906;7.248;2024-02-14T07:03:47;2.05;;;1.10;;
43670;SDS011;29267;50.906;7.248;2024-02-14T07:06:13;3.47;;;1.10;;
43670;SDS011;29267;50.906;7.248;2024-02-14T07:08:42;2.03;;;0.80;;
43670;SDS011;29267;50.906;7.248;2024-02-14T07:11:08;2.72;;;1.05;;
43670;SDS011;29267;50.906;7.248;2024-02-14T07:13:34;2.13;;;0.80;;
43670;SDS011;29267;50.906;7.248;2024-02-14T07:15:59;3.83;;;1.02;;
43670;SDS011;29267;50.906;7.248;2024-02-14T07:18:25;6.38;;;1.15;;
43670;SDS011;29267;50.906;7.248;2024-02-14T07:20:51;6.03;;;1.00;;
43670;SDS011;29267;50.906;7.248;2024-02-14T07:23:18;1.42;;;0.73;;
43670;SDS011;29267;50.906;7.248;2024-02-14T07:25:44;0.65;;;0.47;;
43670;SDS011;29267;50.906;7.248;2024-02-14T07:28:10;1.73;;;0.80;;
43670;SDS011;29267;50.906;7.248;2024-02-14T07:30:35;1.38;;;0.73;;
43670;SDS011;29267;50.906;7.248;2024-02-14T07:33:01;3.63;;;1.48;;
43670;SDS011;29267;50.906;7.248;2024-02-14T07:35:26;1.67;;;0.70;;
43670;SDS011;29267;50.906;7.248;2024-02-14T07:37:52;1.40;;;0.70;;
43670;SDS011;29267;50.906;7.248;2024-02-14T07:40:18;2.72;;;0.60;;
43670;SDS011;29267;50.906;7.248;2024-02-14T07:42:44;4.53;;;0.82;;
43670;SDS011;29267;50.906;7.248;2024-02-14T07:45:09;3.78;;;0.80;;
43670;SDS011;29267;50.906;7.248;2024-02-14T07:47:35;2.05;;;0.80;;
43670;SDS011;29267;50.906;7.248;2024-02-14T07:50:00;1.15;;;0.70;;
43670;SDS011;29267;50.906;7.248;2024-02-14T07:52:27;1.33;;;0.68;;
43670;SDS011;29267;50.906;7.248;2024-02-14T07:54:53;0.60;;;0.50;;
43670;SDS011;29267;50.906;7.248;2024-02-14T07:57:22;3.17;;;0.93;;
43670;SDS011;29267;50.906;7.248;2024-02-14T07:59:48;1.33;;;0.60;;
43670;SDS011;29267;50.906;7.248;2024-02-14T08:02:13;0.80;;;0.50;;
43670;SDS011;29267;50.906;7.248;2024-02-14T08:04:39;1.70;;;1.02;;
43670;SDS011;29267;50.906;7.248;2024-02-14T08:07:05;1.55;;;0.93;;
43670;SDS011;29267;50.906;7.248;2024-02-14T08:09:30;2.00;;;0.90;;
43670;SDS011;29267;50.906;7.248;2024-02-14T08:11:56;3.08;;;0.70;;
43670;SDS011;29267;50.906;7.248;2024-02-14T08:14:21;3.17;;;0.93;;
43670;SDS011;29267;50.906;7.248;2024-02-14T08:16:47;3.88;;;0.70;;
43670;SDS011;29267;50.906;7.248;2024-02-14T08:19:13;0.82;;;0.45;;
43670;SDS011;29267;50.906;7.248;2024-02-14T08:21:39;1.50;;;0.68;;
43670;SDS011;29267;50.906;7.248;2024-02-14T08:24:05;1.85;;;0.55;;
43670;SDS011;29267;50.906;7.248;2024-02-14T08:26:31;3.05;;;0.52;;
43670;SDS011;29267;50.906;7.248;2024-02-14T08:28:56;1.40;;;0.88;;
43670;SDS011;29267;50.906;7.248;2024-02-14T08:31:23;3.40;;;0.85;;
43670;SDS011;29267;50.906;7.248;2024-02-14T08:33:49;2.83;;;1.15;;
43670;SDS011;29267;50.906;7.248;2024-02-14T08:36:14;1.75;;;0.90;;
43670;SDS011;29267;50.906;7.248;2024-02-14T08:38:42;1.88;;;1.02;;
43670;SDS011;29267;50.906;7.248;2024-02-14T08:41:07;1.10;;;0.73;;
43670;SDS011;29267;50.906;7.248;2024-02-14T08:43:33;2.13;;;0.60;;
43670;SDS011;29267;50.906;7.248;2024-02-14T08:45:58;0.80;;;0.63;;
43670;SDS011;29267;50.906;7.248;2024-02-14T08:48:24;0.80;;;0.40;;
43670;SDS011;29267;50.906;7.248;2024-02-14T08:50:52;1.27;;;0.68;;
43670;SDS011;29267;50.906;7.248;2024-02-14T08:53:17;1.20;;;0.80;;
43670;SDS011;29267;50.906;7.248;2024-02-14T08:55:43;2.08;;;0.60;;
43670;SDS011;29267;50.906;7.248;2024-02-14T08:58:09;1.33;;;0.50;;
43670;SDS011;29267;50.906;7.248;2024-02-14T09:00:35;3.30;;;1.00;;
43670;SDS011;29267;50.906;7.248;2024-02-14T09:03:02;1.17;;;0.45;;
43670;SDS011;29267;50.906;7.248;2024-02-14T09:05:28;4.20;;;0.60;;
43670;SDS011;29267;50.906;7.248;2024-02-14T09:07:54;4.25;;;2.08;;
43670;SDS011;29267;50.906;7.248;2024-02-14T09:10:20;4.13;;;1.70;;
43670;SDS011;29267;50.906;7.248;2024-02-14T09:12:47;2.30;;;0.80;;
43670;SDS011;29267;50.906;7.248;2024-02-14T09:15:12;2.70;;;1.10;;
43670;SDS011;29267;50.906;7.248;2024-02-14T09:17:38;2.45;;;0.90;;
43670;SDS011;29267;50.906;7.248;2024-02-14T09:20:06;4.70;;;1.75;;
43670;SDS011;29267;50.906;7.248;2024-02-14T09:22:34;2.10;;;1.10;;
43670;SDS011;29267;50.906;7.248;2024-02-14T09:25:01;6.45;;;2.90;;
43670;SDS011;29267;50.906;7.248;2024-02-14T09:27:29;5.47;;;2.80;;
43670;SDS011;29267;50.906;7.248;2024-02-14T09:29:55;8.38;;;3.38;;
43670;SDS011;29267;50.906;7.248;2024-02-14T09:32:21;33.88;;;14.73;;
43670;SDS011;29267;50.906;7.248;2024-02-14T09:34:46;13.93;;;6.13;;
43670;SDS011;29267;50.906;7.248;2024-02-14T09:37:12;3.67;;;1.85;;
43670;SDS011;29267;50.906;7.248;2024-02-14T09:39:38;6.90;;;3.45;;
43670;SDS011;29267;50.906;7.248;2024-02-14T09:42:06;10.70;;;3.67;;
43670;SDS011;29267;50.906;7.248;2024-02-14T09:44:34;8.02;;;3.67;;
43670;SDS011;29267;50.906;7.248;2024-02-14T09:47:01;27.05;;;10.65;;
43670;SDS011;29267;50.906;7.248;2024-02-14T09:49:29;19.50;;;6.53;;
43670;SDS011;29267;50.906;7.248;2024-02-14T09:51:56;58.92;;;20.50;;
43670;SDS011;29267;50.906;7.248;2024-02-14T09:54:22;70.38;;;29.35;;
43670;SDS011;29267;50.906;7.248;2024-02-14T09:56:49;11.43;;;5.60;;
43670;SDS011;29267;50.906;7.248;2024-02-14T09:59:18;17.90;;;6.35;;
43670;SDS011;29267;50.906;7.248;2024-02-14T10:01:46;7.82;;;3.42;;
43670;SDS011;29267;50.906;7.248;2024-02-14T10:10:58;21.48;;;7.28;;
43670;SDS011;29267;50.906;7.248;2024-02-14T10:13:28;45.95;;;15.43;;
43670;SDS011;29267;50.906;7.248;2024-02-14T10:15:54;22.63;;;9.00;;
43670;SDS011;29267;50.906;7.248;2024-02-14T10:18:20;12.93;;;3.80;;
43670;SDS011;29267;50.906;7.248;2024-02-14T10:20:54;26.02;;;10.07;;
43670;SDS011;29267;50.906;7.248;2024-02-14T10:23:23;17.10;;;5.75;;
43670;SDS011;29267;50.906;7.248;2024-02-14T10:25:49;4.88;;;1.38;;
43670;SDS011;29267;50.906;7.248;2024-02-14T10:28:17;2.53;;;1.45;;
43670;SDS011;29267;50.906;7.248;2024-02-14T10:30:47;9.75;;;4.10;;
43670;SDS011;29267;50.906;7.248;2024-02-14T10:33:14;12.77;;;3.88;;
43670;SDS011;29267;50.906;7.248;2024-02-14T10:35:40;10.77;;;4.78;;
43670;SDS011;29267;50.906;7.248;2024-02-14T10:38:07;30.70;;;11.15;;
43670;SDS011;29267;50.906;7.248;2024-02-14T10:40:34;5.65;;;2.50;;
43670;SDS011;29267;50.906;7.248;2024-02-14T10:43:03;17.05;;;5.00;;
43670;SDS011;29267;50.906;7.248;2024-02-14T10:45:34;31.17;;;10.18;;
43670;SDS011;29267;50.906;7.248;2024-02-14T10:48:04;5.90;;;2.40;;
43670;SDS011;29267;50.906;7.248;2024-02-14T10:50:32;7.82;;;3.92;;
43670;SDS011;29267;50.906;7.248;2024-02-14T10:53:05;11.77;;;5.38;;
43670;SDS011;29267;50.906;7.248;2024-02-14T10:55:32;8.30;;;3.92;;
43670;SDS011;29267;50.906;7.248;2024-02-14T10:57:58;5.20;;;2.70;;
43670;SDS011;29267;50.906;7.248;2024-02-14T11:00:24;7.93;;;2.40;;
43670;SDS011;29267;50.906;7.248;2024-02-14T11:02:50;6.47;;;3.55;;
43670;SDS011;29267;50.906;7.248;2024-02-14T11:05:18;3.53;;;1.75;;
43670;SDS011;29267;50.906;7.248;2024-02-14T11:07:48;8.88;;;3.97;;
43670;SDS011;29267;50.906;7.248;2024-02-14T11:10:17;8.00;;;2.83;;
43670;SDS011;29267;50.906;7.248;2024-02-14T11:12:45;9.80;;;4.10;;
43670;SDS011;29267;50.906;7.248;2024-02-14T11:15:15;15.07;;;5.82;;
43670;SDS011;29267;50.906;7.248;2024-02-14T11:17:49;34.65;;;12.93;;
43670;SDS011;29267;50.906;7.248;2024-02-14T11:22:50;18.42;;;4.45;;
43670;SDS011;29267;50.906;7.248;2024-02-14T11:25:23;1.92;;;1.13;;
43670;SDS011;29267;50.906;7.248;2024-02-14T11:27:53;2.53;;;1.25;;
43670;SDS011;29267;50.906;7.248;2024-02-14T11:30:33;4.55;;;1.75;;
43670;SDS011;29267;50.906;7.248;2024-02-14T11:33:10;1.98;;;1.02;;
43670;SDS011;29267;50.906;7.248;2024-02-14T11:35:39;6.88;;;2.35;;
43670;SDS011;29267;50.906;7.248;2024-02-14T11:38:06;19.73;;;7.65;;
43670;SDS011;29267;50.906;7.248;2024-02-14T11:40:32;18.38;;;4.45;;
43670;SDS011;29267;50.906;7.248;2024-02-14T11:42:57;30.85;;;11.52;;
43670;SDS011;29267;50.906;7.248;2024-02-14T11:45:23;35.90;;;10.55;;
43670;SDS011;29267;50.906;7.248;2024-02-14T11:47:49;15.80;;;5.30;;
43670;SDS011;29267;50.906;7.248;2024-02-14T11:50:16;11.25;;;3.38;;
43670;SDS011;29267;50.906;7.248;2024-02-14T11:52:43;31.65;;;7.13;;
43670;SDS011;29267;50.906;7.248;2024-02-14T11:55:09;58.15;;;17.08;;
43670;SDS011;29267;50.906;7.248;2024-02-14T11:57:35;22.27;;;6.57;;
43670;SDS011;29267;50.906;7.248;2024-02-14T12:00:01;47.45;;;14.57;;
43670;SDS011;29267;50.906;7.248;2024-02-14T12:02:27;53.65;;;17.48;;
43670;SDS011;29267;50.906;7.248;2024-02-14T12:04:53;47.33;;;14.13;;
43670;SDS011;29267;50.906;7.248;2024-02-14T12:07:20;55.20;;;13.70;;
43670;SDS011;29267;50.906;7.248;2024-02-14T12:09:47;29.02;;;7.50;;
43670;SDS011;29267;50.906;7.248;2024-02-14T12:12:14;20.63;;;6.82;;
43670;SDS011;29267;50.906;7.248;2024-02-14T12:14:42;18.17;;;5.40;;
43670;SDS011;29267;50.906;7.248;2024-02-14T12:17:09;55.30;;;20.08;;
43670;SDS011;29267;50.906;7.248;2024-02-14T12:19:35;25.90;;;9.23;;
43670;SDS011;29267;50.906;7.248;2024-02-14T12:22:02;17.20;;;5.97;;
43670;SDS011;29267;50.906;7.248;2024-02-14T12:24:42;5.03;;;2.50;;
43670;SDS011;29267;50.906;7.248;2024-02-14T12:27:09;16.17;;;7.38;;
43670;SDS011;29267;50.906;7.248;2024-02-14T12:29:34;4.65;;;1.77;;
43670;SDS011;29267;50.906;7.248;2024-02-14T12:32:06;3.53;;;2.20;;
43670;SDS011;29267;50.906;7.248;2024-02-14T12:34:32;5.07;;;2.65;;
43670;SDS011;29267;50.906;7.248;2024-02-14T12:36:58;1.05;;;0.70;;
43670;SDS011;29267;50.906;7.248;2024-02-14T12:39:25;3.72;;;1.27;;
43670;SDS011;29267;50.906;7.248;2024-02-14T12:41:54;2.75;;;1.55;;
43670;SDS011;29267;50.906;7.248;2024-02-14T12:44:20;1.88;;;1.20;;
43670;SDS011;29267;50.906;7.248;2024-02-14T12:46:46;5.75;;;1.52;;
43670;SDS011;29267;50.906;7.248;2024-02-14T12:49:12;0.98;;;0.88;;
43670;SDS011;29267;50.906;7.248;2024-02-14T12:51:37;2.05;;;0.80;;
43670;SDS011;29267;50.906;7.248;2024-02-14T12:54:03;1.25;;;1.10;;
43670;SDS011;29267;50.906;7.248;2024-02-14T12:56:30;0.73;;;0.60;;
43670;SDS011;29267;50.906;7.248;2024-02-14T12:58:56;0.50;;;0.50;;
43670;SDS011;29267;50.906;7.248;2024-02-14T13:01:22;8.90;;;0.90;;
43670;SDS011;29267;50.906;7.248;2024-02-14T13:03:48;0.98;;;0.70;;
43670;SDS011;29267;50.906;7.248;2024-02-14T13:06:13;3.63;;;1.13;;
43670;SDS011;29267;50.906;7.248;2024-02-14T13:08:39;0.85;;;0.50;;
43670;SDS011;29267;50.906;7.248;2024-02-14T13:11:05;1.88;;;1.38;;
43670;SDS011;29267;50.906;7.248;2024-02-14T13:13:33;3.00;;;1.75;;
43670;SDS011;29267;50.906;7.248;2024-02-14T13:15:59;1.95;;;1.33;;
43670;SDS011;29267;50.906;7.248;2024-02-14T13:18:25;3.20;;;2.10;;
43670;SDS011;29267;50.906;7.248;2024-02-14T13:20:51;1.95;;;1.23;;
43670;SDS011;29267;50.906;7.248;2024-02-14T13:23:24;1.88;;;1.08;;
43670;SDS011;29267;50.906;7.248;2024-02-14T13:25:52;1.73;;;0.82;;
43670;SDS011;29267;50.906;7.248;2024-02-14T13:28:18;1.52;;;0.93;;
43670;SDS011;29267;50.906;7.248;2024-02-14T13:30:44;1.42;;;0.65;;
43670;SDS011;29267;50.906;7.248;2024-02-14T13:33:11;2.50;;;1.42;;
43670;SDS011;29267;50.906;7.248;2024-02-14T13:35:38;1.52;;;0.93;;
43670;SDS011;29267;50.906;7.248;2024-02-14T13:38:07;1.15;;;0.90;;
43670;SDS011;29267;50.906;7.248;2024-02-14T13:40:34;1.42;;;1.13;;
43670;SDS011;29267;50.906;7.248;2024-02-14T13:43:00;2.33;;;1.15;;
43670;SDS011;29267;50.906;7.248;2024-02-14T13:45:26;2.78;;;0.95;;
43670;SDS011;29267;50.906;7.248;2024-02-14T13:48:04;4.15;;;1.45;;
43670;SDS011;29267;50.906;7.248;2024-02-14T13:50:30;4.65;;;2.70;;
43670;SDS011;29267;50.906;7.248;2024-02-14T13:52:55;3.00;;;1.85;;
43670;SDS011;29267;50.906;7.248;2024-02-14T13:55:21;8.25;;;2.20;;
43670;SDS011;29267;50.906;7.248;2024-02-14T13:57:46;4.13;;;2.00;;
43670;SDS011;29267;50.906;7.248;2024-02-14T14:00:12;4.32;;;2.10;;
43670;SDS011;29267;50.906;7.248;2024-02-14T14:02:38;4.88;;;2.28;;
43670;SDS011;29267;50.906;7.248;2024-02-14T14:05:09;5.05;;;1.90;;
43670;SDS011;29267;50.906;7.248;2024-02-14T14:07:36;4.57;;;1.90;;
43670;SDS011;29267;50.906;7.248;2024-02-14T14:10:06;7.90;;;2.05;;
43670;SDS011;29267;50.906;7.248;2024-02-14T14:12:32;2.38;;;1.45;;
43670;SDS011;29267;50.906;7.248;2024-02-14T14:14:58;2.50;;;0.73;;
43670;SDS011;29267;50.906;7.248;2024-02-14T14:17:24;1.83;;;0.68;;
43670;SDS011;29267;50.906;7.248;2024-02-14T14:19:50;0.80;;;0.50;;
43670;SDS011;29267;50.906;7.248;2024-02-14T14:22:15;2.60;;;0.85;;
43670;SDS011;29267;50.906;7.248;2024-02-14T14:24:41;2.92;;;0.50;;
43670;SDS011;29267;50.906;7.248;2024-02-14T14:27:07;1.02;;;0.57;;
43670;SDS011;29267;50.906;7.248;2024-02-14T14:29:43;0.73;;;0.50;;
43670;SDS011;29267;50.906;7.248;2024-02-14T14:32:08;1.35;;;0.70;;
43670;SDS011;29267;50.906;7.248;2024-02-14T14:34:34;1.48;;;0.68;;
43670;SDS011;29267;50.906;7.248;2024-02-14T14:37:01;2.22;;;0.60;;
43670;SDS011;29267;50.906;7.248;2024-02-14T14:39:27;0.35;;;0.35;;
43670;SDS011;29267;50.906;7.248;2024-02-14T14:41:53;4.43;;;0.95;;
43670;SDS011;29267;50.906;7.248;2024-02-14T14:44:23;5.43;;;2.70;;
43670;SDS011;29267;50.906;7.248;2024-02-14T14:46:49;2.90;;;1.67;;
43670;SDS011;29267;50.906;7.248;2024-02-14T14:49:15;2.15;;;1.05;;
43670;SDS011;29267;50.906;7.248;2024-02-14T14:51:41;1.55;;;0.77;;